createdAt,value
2019-03-18T00:01:15.589Z,95256.3
2019-03-18T00:06:12.255Z,95260.1
2019-03-18T00:11:09.324Z,94598.4
2019-03-18T00:16:06.170Z,95258.3
2019-03-18T00:21:03.443Z,95261.5
2019-03-18T00:26:00.463Z,95174.7
2019-03-18T00:30:57.532Z,95177.3
2019-03-18T00:35:54.675Z,95274.2
2019-03-18T00:40:51.619Z,95179.1
2019-03-18T00:45:48.779Z,95171
2019-03-18T00:50:45.787Z,95166
2019-03-18T00:55:42.961Z,95164.1
2019-03-18T01:00:39.894Z,95171.4
2019-03-18T01:05:36.685Z,95169.7
2019-03-18T01:10:33.643Z,95162.9
2019-03-18T01:15:30.486Z,95149
2019-03-18T01:20:27.446Z,95155
2019-03-18T01:25:24.604Z,95154.5
2019-03-18T01:30:21.450Z,95148.6
2019-03-18T01:35:18.279Z,95139.4
2019-03-18T01:40:15.355Z,95145
2019-03-18T01:45:12.441Z,95144.5
2019-03-18T01:50:09.444Z,95137.8
2019-03-18T01:55:06.509Z,95196.7
2019-03-18T02:00:03.457Z,95159.5
2019-03-18T02:05:00.707Z,95138.9
2019-03-18T02:09:57.552Z,95149.2
2019-03-18T02:14:54.742Z,95150.6
2019-03-18T02:19:51.787Z,95156.1
2019-03-18T02:24:48.800Z,95164
2019-03-18T02:29:45.941Z,95161.3
2019-03-18T02:34:42.860Z,95181.8
2019-03-18T02:39:39.739Z,95172
2019-03-18T02:44:36.506Z,95178.4
2019-03-18T02:49:33.579Z,95180.7
2019-03-18T02:54:30.621Z,95178.1
2019-03-18T02:59:27.784Z,95261.9
2019-03-18T03:04:24.138Z,95189.9
2019-03-18T03:09:21.109Z,95175.8
2019-03-18T03:14:18.021Z,95181
2019-03-18T03:19:15.043Z,95129.6
2019-03-18T03:24:11.973Z,95169
2019-03-18T03:29:09.002Z,95178.3
2019-03-18T03:34:12.335Z,95182.9
2019-03-18T03:39:02.943Z,95191.7
2019-03-18T03:44:00.009Z,95193.8
2019-03-18T03:48:56.986Z,95202.3
2019-03-18T03:53:54.144Z,95193.7
2019-03-18T03:58:51.233Z,95198.4
2019-03-18T04:03:48.388Z,95197.1
2019-03-18T04:08:45.304Z,95207.3
2019-03-18T04:13:42.154Z,95211.9
2019-03-18T04:18:39.161Z,95203.9
2019-03-18T04:23:36.623Z,95206.4
2019-03-18T04:28:33.404Z,95210
2019-03-18T04:33:30.389Z,95216.1
2019-03-18T04:38:27.394Z,95225.6
2019-03-18T04:43:23.755Z,95225
2019-03-18T04:48:20.259Z,95223
2019-03-18T04:53:17.602Z,95316.6
2019-03-18T04:58:14.397Z,95236.3
2019-03-18T05:03:10.953Z,95239.5
2019-03-18T05:08:08.095Z,95245.2
2019-03-18T05:13:05.171Z,95244.1
2019-03-18T05:18:02.043Z,95243
2019-03-18T05:22:59.889Z,95243.5
2019-03-18T05:27:56.742Z,95253.6
2019-03-18T05:32:53.342Z,95246.3
2019-03-18T05:37:50.257Z,95217.9
2019-03-18T05:42:47.406Z,95265.4
2019-03-18T05:47:44.333Z,95261.1
2019-03-18T05:52:41.293Z,95246.6
2019-03-18T05:57:38.207Z,95254.2
2019-03-18T06:02:35.250Z,95245.7
2019-03-18T06:07:32.160Z,95239.3
2019-03-18T06:12:28.738Z,95233.6
2019-03-18T06:17:25.747Z,95258
2019-03-18T06:22:22.360Z,95250.9
2019-03-18T06:27:19.303Z,95248.4
2019-03-18T06:32:13.102Z,95243.4
2019-03-18T06:37:10.303Z,95328.2
2019-03-18T06:42:07.092Z,95241.7
2019-03-18T06:47:04.138Z,95249.5
2019-03-18T06:52:00.982Z,95237.9
2019-03-18T06:56:57.774Z,95242.3
2019-03-18T07:01:54.852Z,95244
2019-03-18T07:06:52.092Z,95243.8
2019-03-18T07:11:48.699Z,95232.3
2019-03-18T07:16:45.522Z,95242.1
2019-03-18T07:21:42.709Z,95238.9
2019-03-18T07:26:39.562Z,95241.5
2019-03-18T07:31:36.891Z,95315.9
2019-03-18T07:36:34.310Z,95317.6
2019-03-18T07:41:31.873Z,95376.2
2019-03-18T07:46:28.621Z,95221.7
2019-03-18T07:51:25.996Z,95221.1
2019-03-18T07:56:22.694Z,95210.1
2019-03-18T08:01:19.947Z,95288.4
2019-03-18T08:06:16.734Z,95287.5
2019-03-18T08:11:14.047Z,95274
2019-03-18T08:16:11.351Z,95265.2
2019-03-18T08:21:08.376Z,95266.8
2019-03-18T08:26:05.421Z,95263.4
2019-03-18T08:31:02.682Z,95264.2
2019-03-18T08:35:59.726Z,95185.8
2019-03-18T08:40:56.921Z,95261.4
2019-03-18T08:45:54.033Z,95247.7
2019-03-18T08:50:50.848Z,95242.1
2019-03-18T08:55:47.935Z,95236.4
2019-03-18T09:00:45.290Z,95237.1
2019-03-18T09:05:42.457Z,95229.4
2019-03-18T09:10:39.264Z,95228.1
2019-03-18T09:15:36.394Z,95216.1
2019-03-18T09:20:33.554Z,95218.1
2019-03-18T09:25:31.107Z,95211.5
2019-03-18T09:30:28.513Z,95128.1
2019-03-18T09:35:25.584Z,95206.2
2019-03-18T09:40:22.624Z,95209.2
2019-03-18T09:45:19.968Z,95198.5
2019-03-18T09:50:16.857Z,95197.2
2019-03-18T09:55:13.888Z,95188.4
2019-03-18T10:00:12.318Z,95185.4
2019-03-18T10:05:08.488Z,95181.3
2019-03-18T10:10:05.754Z,95175.9
2019-03-18T10:15:03.033Z,95160.3
2019-03-18T10:20:00.448Z,95154.2
2019-03-18T10:24:57.415Z,95143
2019-03-18T10:29:54.554Z,95146.2
2019-03-18T10:34:51.782Z,95147.5
2019-03-18T10:39:48.727Z,94981.3
2019-03-18T10:44:45.969Z,95132.2
2019-03-18T10:49:46.243Z,95123.3
2019-03-18T10:54:40.580Z,95114.3
2019-03-18T10:59:37.839Z,95105.5
2019-03-18T11:04:34.968Z,95106.8
2019-03-18T11:09:31.886Z,95089.6
2019-03-18T11:14:29.063Z,95105.3
2019-03-18T11:19:25.890Z,95128
2019-03-18T11:24:23.329Z,95109.9
2019-03-18T11:29:21.199Z,95058.7
2019-03-18T11:34:18.978Z,95056.9
2019-03-18T11:39:16.496Z,95045
2019-03-18T11:44:13.477Z,94964.5
2019-03-18T11:49:11.368Z,95030.8
2019-03-18T11:54:08.662Z,94941.4
2019-03-18T11:59:05.619Z,94943.3
2019-03-18T12:04:02.988Z,94944.6
2019-03-18T12:09:00.167Z,94926.7
2019-03-18T12:13:57.374Z,94916.5
2019-03-18T12:18:54.636Z,94914.5
2019-03-18T12:23:52.014Z,94907.9
2019-03-18T12:28:48.896Z,94906.9
2019-03-18T12:33:46.236Z,94892.4
2019-03-18T12:38:43.569Z,94886.7
2019-03-18T12:43:40.704Z,94883.5
2019-03-18T12:48:38.041Z,94871.3
2019-03-18T12:53:35.187Z,94818.9
2019-03-18T12:58:32.206Z,94835.8
2019-03-18T13:03:29.573Z,94851.3
2019-03-18T13:08:27.057Z,94846.8
2019-03-18T13:13:24.255Z,94920.2
2019-03-18T13:18:21.851Z,94839.3
2019-03-18T13:23:19.187Z,94837.8
2019-03-18T13:28:16.435Z,94840.5
2019-03-18T13:33:13.541Z,94835.4
2019-03-18T13:38:10.961Z,94824.7
2019-03-18T13:43:08.280Z,94826.2
2019-03-18T13:48:05.680Z,94815.5
2019-03-18T13:53:02.940Z,94818.8
2019-03-18T13:58:00.330Z,94809.2
2019-03-18T14:02:57.438Z,94806.2
2019-03-18T14:07:59.984Z,94811.8
2019-03-18T14:12:51.685Z,94791.5
2019-03-18T14:17:48.792Z,94794.8
2019-03-18T14:22:46.687Z,94906.9
2019-03-18T14:27:43.916Z,94805.6
2019-03-18T14:32:40.735Z,94788.9
2019-03-18T14:37:37.815Z,94785.1
2019-03-18T14:42:34.883Z,94083.4
2019-03-18T14:47:31.922Z,94793.6
2019-03-18T14:52:28.884Z,94790
2019-03-18T14:57:26.158Z,94786
2019-03-18T15:02:23.355Z,94791.2
2019-03-18T15:07:20.574Z,94781.8
2019-03-18T15:12:17.837Z,94787.8
2019-03-18T15:17:14.924Z,94791.1
2019-03-18T15:22:12.630Z,94866.8
2019-03-18T15:27:09.829Z,94790.7
2019-03-18T15:32:07.106Z,94795.5
2019-03-18T15:37:04.379Z,94794.6
2019-03-18T15:42:01.174Z,94798.8
2019-03-18T15:46:57.823Z,94809
2019-03-18T15:51:54.878Z,94803.7
2019-03-18T15:56:52.035Z,94809.5
2019-03-18T16:01:49.319Z,94820.3
2019-03-18T16:06:46.577Z,94881.9
2019-03-18T16:16:41.140Z,94894.2
2019-03-18T16:21:38.029Z,94824.1
2019-03-18T16:26:34.793Z,94838.1
2019-03-18T16:31:31.761Z,94842
2019-03-18T16:36:28.881Z,94848.2
2019-03-18T16:41:25.853Z,94853.6
2019-03-18T16:46:23.050Z,94856.7
2019-03-18T16:51:20.305Z,94856.7
2019-03-18T16:56:18.009Z,94944.3
2019-03-18T17:01:14.467Z,94871.4
2019-03-18T17:06:11.267Z,94880.2
2019-03-18T17:11:08.461Z,94887.9
2019-03-18T17:16:05.299Z,94891.7
2019-03-18T17:21:02.275Z,94902.6
2019-03-18T17:25:59.503Z,94900.7
2019-03-18T17:30:56.512Z,94908.1
2019-03-18T17:35:53.739Z,94901.8
2019-03-18T17:40:50.604Z,94907.9
2019-03-18T17:45:47.773Z,94918.9
2019-03-18T17:50:44.865Z,94918.7
2019-03-18T17:55:42.067Z,95055.2
2019-03-18T18:00:39.127Z,94937.6
2019-03-18T18:05:36.337Z,94918.5
2019-03-18T18:10:33.534Z,94952
2019-03-18T18:15:30.870Z,94944.9
2019-03-18T18:20:27.933Z,94948.4
2019-03-18T18:25:24.963Z,94957.4
2019-03-18T18:30:21.964Z,95044.1
2019-03-18T18:35:19.251Z,94977.9
2019-03-18T18:40:16.324Z,94968.5
2019-03-18T18:45:13.511Z,94968.3
2019-03-18T18:50:11.278Z,95049.6
2019-03-18T18:55:08.812Z,95056.1
2019-03-18T19:00:05.979Z,94980.1
2019-03-18T19:05:03.092Z,95130
2019-03-18T19:09:59.878Z,95119.3
2019-03-18T19:14:57.146Z,95136.8
2019-03-18T19:19:54.369Z,95117.1
2019-03-18T19:24:51.347Z,95141.4
2019-03-18T19:29:48.425Z,95143.4
2019-03-18T19:34:45.537Z,95117.8
2019-03-18T19:39:43.100Z,95098.7
2019-03-18T19:44:40.177Z,95108.9
2019-03-18T19:49:37.962Z,95120.1
2019-03-18T19:54:35.099Z,95109.4
2019-03-18T19:59:31.786Z,95113.8
2019-03-18T20:04:29.014Z,95121.8
2019-03-18T20:09:25.878Z,95104.6
2019-03-18T20:14:23.052Z,95130.8
2019-03-18T20:19:20.173Z,95137
2019-03-18T20:24:17.214Z,95136.9
2019-03-18T20:29:14.263Z,95134.7
2019-03-18T20:34:11.211Z,95141.2
2019-03-18T20:39:08.012Z,95151.2
2019-03-18T20:44:05.747Z,95125.3
2019-03-18T20:49:02.418Z,95161.2
2019-03-18T20:53:59.859Z,95171.2
2019-03-18T20:58:56.644Z,95141.3
2019-03-18T21:03:54.462Z,95166
2019-03-18T21:08:56.555Z,95181.7
2019-03-18T21:13:56.891Z,95179
2019-03-18T21:18:49.718Z,95176
2019-03-18T21:23:47.364Z,95096.1
2019-03-18T21:28:44.036Z,95178.1
2019-03-18T21:33:41.310Z,95174.7
2019-03-18T21:38:38.363Z,95181
2019-03-18T21:48:31.622Z,95183
2019-03-18T21:53:28.566Z,95170.7
2019-03-18T21:58:25.786Z,95181
2019-03-18T22:03:23.043Z,95182
2019-03-18T22:08:20.118Z,95188.7
2019-03-18T22:13:17.654Z,95189
2019-03-18T22:18:14.896Z,95191.7
2019-03-18T22:23:11.823Z,95192.8
2019-03-18T22:28:08.962Z,95190.2
2019-03-18T22:33:05.956Z,95190
2019-03-18T22:38:03.210Z,95195.6
2019-03-18T22:43:00.389Z,95206.5
2019-03-18T22:47:57.722Z,95220.2
2019-03-18T22:52:54.481Z,95224.4
2019-03-18T22:57:51.886Z,95224.9
2019-03-18T23:02:48.545Z,95213.2
2019-03-18T23:07:45.433Z,95238.6
2019-03-18T23:12:42.399Z,95245.9
2019-03-18T23:17:39.294Z,95243.7
2019-03-18T23:22:36.422Z,95256.6
2019-03-18T23:27:33.277Z,95253.6
2019-03-18T23:32:30.420Z,95252.8
2019-03-18T23:37:27.441Z,95257
2019-03-18T23:42:24.548Z,95264.9
2019-03-18T23:47:21.707Z,95265.8
2019-03-18T23:52:18.737Z,95271.3
2019-03-18T23:57:16.017Z,95272.2
